Hlavní strana
METAR-TAF:

METAR-TAF

Letiště :

Heidrun, Norsko

zeměpisná šířka: 65-19-30N, zeměpisná délka: 007-19-36E, výška: 0 m

Aktuální stav počasí

Zpráva byla vytvořena před 13 minutami, v 09:50 UTC
Jižní vítr 7 kt
Teplota 9°C
Vlhkost vzduchu 93%
Tlak 1034 hPa
Viditelnost: 0100 m
mlha

METAR: ENHE 300950Z 17007KT 0100 FG VV001 09/08 Q1034 W///S3

Čas: 12:03 (10:03 UTC)

Předpověď počasí

Zpráva byla vytvořena před 2 hodinami a 3 minutami, v 08:00 UTC
Předpověď platná od 30 v 09 UTC do 30 v 18 UTC
Jihojihovýchodní vítr 12 kt
Viditelnost 10 km a více
Oblačno až skoro zataženo ve výšce 500 ft
Pravděpodobnost 40%
od 30 v 09 UTC do 30 v 12 UTC
Viditelnost: 0200 m
ve výšce 200 ft
mlha
Změna
od 30 v 12 UTC do 30 v 15 UTC
Skoro jasno ve výšce 500 ft

TAF: ENHE 300800Z 3009/3018 16012KT 9999 BKN005 PROB40 3009/3012 0200 FG VV002 BECMG 3012/3015 FEW005

Stav a předpovědi počasí z více než 4 000 letišť (zprávy METAR a TAF).

Červené a žluté tečky na mapě představují dostupné meteorologické stanice.

Když kurzor umístíte na tečku, zobrazí se název stanice.

Pak kliknutím zobrazíte stav a předpověď počasí.

Chcete-li změnit mapu, kliknutím na zelené tlačítko se znaménkem +mapu přiblížíte, kliknutím na zelené tlačítko se znaménkem – mapu oddálíte a kliknutím na zelené šipky přejdete na sousední mapy.


METAR-TAF: